Time;durP1;ratioP1;P1;durP2;ratioP2;P2;SDS_P1;SDS_P2;PMS_P1;PMS_P2;Temp;Humidity;BMP_temperature;BMP_pressure;BME280_temperature;BME280_humidity;BME280_pressure;Samples;Min_cycle;Max_cycle;Signal;HPM_P1;HPM_P2
2023/09/07 00:02:19;;;;;;;;;;;;;;;18.69;100.00;100150.66;4935185;29;19922;-82
2023/09/07 00:04:45;;;;;;;;;;;;;;;18.60;100.00;100154.44;4934641;29;19985;-81
2023/09/07 00:07:10;;;;;;;;;;;;;;;18.62;100.00;100152.41;4934646;29;19929;-81
2023/09/07 00:09:35;;;;;;;;;;;;;;;18.65;100.00;100146.72;4933683;29;19923;-81
2023/09/07 00:12:01;;;;;;;;;;;;;;;18.70;100.00;100149.66;4935095;29;19977;-81
2023/09/07 00:14:26;;;;;;;;;;;;;;;18.73;100.00;100149.31;4934709;29;20014;-82
2023/09/07 00:16:51;;;;;;;;;;;;;;;18.78;100.00;100144.25;4935502;29;19962;-82
2023/09/07 00:19:17;;;;;;;;;;;;;;;18.64;100.00;100139.69;4935719;29;19923;-82
2023/09/07 00:21:42;;;;;;;;;;;;;;;18.54;100.00;100141.75;4933434;29;20021;-81
2023/09/07 00:24:07;;;;;;;;;;;;;;;18.36;100.00;100142.91;4935135;29;19930;-82
2023/09/07 00:26:32;;;;;;;;;;;;;;;18.52;100.00;100151.78;4934572;29;19947;-84
2023/09/07 00:28:58;;;;;;;;;;;;;;;18.54;100.00;100144.44;4934402;29;19923;-83
2023/09/07 00:31:24;;;;;;;;;;;;;;;18.56;100.00;100145.09;4934196;29;19930;-83
2023/09/07 00:33:49;;;;;;;;;;;;;;;18.61;100.00;100140.06;4934241;29;19927;-83
2023/09/07 00:36:14;;;;;;;;;;;;;;;18.62;100.00;100141.69;4934402;29;20362;-83
2023/09/07 00:38:41;;;;;;;;;;;;;;;18.62;100.00;100147.06;4934078;29;19923;-81
2023/09/07 00:41:06;;;;;;;;;;;;;;;18.53;100.00;100142.75;4934492;29;19979;-81
2023/09/07 00:43:32;;;;;;;;;;;;;;;18.46;100.00;100147.16;4933693;29;19957;-82
2023/09/07 00:45:57;;;;;;;;;;;;;;;18.48;100.00;100134.47;4933924;29;19923;-81
2023/09/07 00:48:22;;;;;;;;;;;;;;;18.48;100.00;100134.47;4934221;29;19967;-81
2023/09/07 00:50:48;;;;;;;;;;;;;;;18.46;100.00;100131.13;4932403;29;19922;-81
2023/09/07 00:53:14;;;;;;;;;;;;;;;18.45;100.00;100132.97;4933969;29;20402;-81
2023/09/07 00:55:39;;;;;;;;;;;;;;;18.51;100.00;100136.75;4932332;29;20451;-80
2023/09/07 00:58:05;;;;;;;;;;;;;;;18.52;100.00;100130.41;4932261;29;19951;-80
2023/09/07 01:00:31;;;;;;;;;;;;;;;18.46;100.00;100131.13;4931101;29;20323;-80
2023/09/07 01:02:57;;;;;;;;;;;;;;;18.30;100.00;100138.28;4929388;29;20002;-80
2023/09/07 01:05:27;;;;;;;;;;;;;;;18.28;100.00;100131.44;4931892;29;19923;-79
2023/09/07 01:07:58;;;;;;;;;;;;;;;18.26;100.00;100131.59;4925480;29;19930;-81
2023/09/07 01:10:24;;;;;;;;;;;;;;;18.25;100.00;100134.47;4931756;29;19973;-80
2023/09/07 01:12:49;;;;;;;;;;;;;;;18.18;100.00;100134.34;4932472;29;19966;-80
2023/09/07 01:15:17;;;;;;;;;;;;;;;18.23;100.00;100137.31;4932963;29;20312;-80
2023/09/07 01:17:43;;;;;;;;;;;;;;;18.23;100.00;100136.47;4931849;29;19926;-82
2023/09/07 01:20:10;;;;;;;;;;;;;;;18.30;100.00;100140.94;4933251;29;19922;-82
2023/09/07 01:22:35;;;;;;;;;;;;;;;18.27;100.00;100138.59;4931829;29;19954;-81
2023/09/07 01:25:01;;;;;;;;;;;;;;;17.94;100.00;100137.16;4932243;29;19984;-82
2023/09/07 01:27:28;;;;;;;;;;;;;;;17.77;100.00;100130.25;4933296;29;19926;-81
2023/09/07 01:29:53;;;;;;;;;;;;;;;17.84;100.00;100131.22;4933734;29;19948;-81
2023/09/07 01:32:18;;;;;;;;;;;;;;;17.91;100.00;100133.00;4933413;29;19970;-78
2023/09/07 01:34:44;;;;;;;;;;;;;;;17.69;100.00;100138.28;4931629;29;19930;-82
2023/09/07 01:37:09;;;;;;;;;;;;;;;17.82;100.00;100134.06;4932065;29;20463;-82
2023/09/07 01:39:35;;;;;;;;;;;;;;;17.70;100.00;100134.63;4933011;29;20380;-80
2023/09/07 01:42:01;;;;;;;;;;;;;;;17.78;100.00;100131.94;4933513;29;19962;-82
2023/09/07 01:44:26;;;;;;;;;;;;;;;17.77;100.00;100146.28;4933303;29;19926;-83
2023/09/07 01:46:52;;;;;;;;;;;;;;;17.77;100.00;100140.94;4931403;29;20005;-83
2023/09/07 01:49:17;;;;;;;;;;;;;;;17.59;100.00;100131.31;4931872;29;19972;-84
2023/09/07 01:51:43;;;;;;;;;;;;;;;17.49;100.00;100141.38;4931545;29;19926;-84
2023/09/07 01:54:09;;;;;;;;;;;;;;;17.48;100.00;100139.72;4933410;29;20304;-83
2023/09/07 01:56:35;;;;;;;;;;;;;;;17.54;100.00;100139.03;4931844;29;19933;-81
2023/09/07 01:59:00;;;;;;;;;;;;;;;17.53;100.00;100139.19;4931463;29;20296;-80
2023/09/07 02:01:26;;;;;;;;;;;;;;;17.55;100.00;100138.00;4930914;29;20339;-80
2023/09/07 02:03:52;;;;;;;;;;;;;;;17.62;100.00;100132.81;4932505;29;20443;-80
2023/09/07 02:06:18;;;;;;;;;;;;;;;17.73;100.00;100142.31;4915582;29;19998;-79
2023/09/07 02:08:43;;;;;;;;;;;;;;;17.69;100.00;100138.28;4930500;29;19929;-81
2023/09/07 02:11:09;;;;;;;;;;;;;;;17.73;100.00;100139.63;4931337;29;19949;-80
2023/09/07 02:13:34;;;;;;;;;;;;;;;17.51;100.00;100136.69;4931929;29;20743;-80
2023/09/07 02:16:03;;;;;;;;;;;;;;;17.50;100.00;100137.69;4932632;29;20439;-80
2023/09/07 02:18:28;;;;;;;;;;;;;;;17.47;100.00;100146.03;4930279;29;19926;-80
2023/09/07 02:21:00;;;;;;;;;;;;;;;17.43;100.00;100143.91;4930953;29;20296;-80
2023/09/07 02:23:26;;;;;;;;;;;;;;;17.33;100.00;100138.75;4930397;29;19923;-81
2023/09/07 02:25:51;;;;;;;;;;;;;;;16.92;100.00;100150.50;4932350;29;19978;-80
2023/09/07 02:28:16;;;;;;;;;;;;;;;16.99;100.00;100148.84;4930596;29;20446;-79
2023/09/07 02:30:42;;;;;;;;;;;;;;;17.00;100.00;100155.84;4930693;29;19934;-80
2023/09/07 02:33:07;;;;;;;;;;;;;;;17.12;100.00;100167.81;4931958;29;19923;-80
2023/09/07 02:35:36;;;;;;;;;;;;;;;17.06;100.00;100157.84;4931719;29;20021;-79
2023/09/07 02:38:01;;;;;;;;;;;;;;;16.79;100.00;100157.19;4930333;29;20006;-80
2023/09/07 02:40:27;;;;;;;;;;;;;;;16.67;100.00;100161.19;4930653;29;20018;-80
2023/09/07 02:42:52;;;;;;;;;;;;;;;16.61;100.00;100164.53;4930711;29;20022;-80
2023/09/07 02:45:17;;;;;;;;;;;;;;;16.60;100.00;100162.88;4930675;29;19923;-80
2023/09/07 02:47:43;;;;;;;;;;;;;;;16.61;100.00;100164.53;4931588;29;19923;-81
2023/09/07 02:50:09;;;;;;;;;;;;;;;16.41;100.00;100163.16;4930437;29;19923;-81
2023/09/07 02:52:34;;;;;;;;;;;;;;;16.52;100.00;100160.16;4931715;29;19934;-82
2023/09/07 02:55:00;;;;;;;;;;;;;;;16.67;100.00;100163.84;4930522;29;19946;-80
2023/09/07 02:57:25;;;;;;;;;;;;;;;16.70;100.00;100174.19;4931663;29;20384;-79
2023/09/07 02:59:52;;;;;;;;;;;;;;;16.84;100.00;100171.88;4930732;29;19923;-80
2023/09/07 03:02:17;;;;;;;;;;;;;;;16.90;100.00;100180.03;4931959;29;19962;-81
2023/09/07 03:04:43;;;;;;;;;;;;;;;16.89;100.00;100185.53;4930623;29;20025;-79
2023/09/07 03:07:09;;;;;;;;;;;;;;;17.00;100.00;100185.16;4929376;29;20507;-80
2023/09/07 03:09:34;;;;;;;;;;;;;;;17.10;100.00;100183.97;4931571;29;20060;-79
2023/09/07 03:11:59;;;;;;;;;;;;;;;17.15;100.00;100178.13;4930641;29;19923;-80
2023/09/07 03:14:25;;;;;;;;;;;;;;;17.09;100.00;100178.81;4930659;29;19923;-81
2023/09/07 03:16:51;;;;;;;;;;;;;;;17.07;100.00;100173.66;4930455;29;19930;-81
2023/09/07 03:19:16;;;;;;;;;;;;;;;17.08;100.00;100171.84;4930699;29;20383;-82
2023/09/07 03:21:43;;;;;;;;;;;;;;;17.05;100.00;100174.81;4929963;29;19929;-81
2023/09/07 03:24:08;;;;;;;;;;;;;;;17.08;100.00;100177.16;4929973;29;19923;-81
2023/09/07 03:26:34;;;;;;;;;;;;;;;17.01;100.00;100176.19;4933453;29;20304;-81
2023/09/07 03:29:00;;;;;;;;;;;;;;;16.70;100.00;100173.38;4935264;29;19925;-80
2023/09/07 03:31:25;;;;;;;;;;;;;;;16.55;100.00;100186.47;4933660;29;19923;-80
2023/09/07 03:33:50;;;;;;;;;;;;;;;16.23;100.00;100178.47;4935324;29;19929;-80
2023/09/07 03:36:16;;;;;;;;;;;;;;;16.29;100.00;100175.13;4934739;29;20014;-80
2023/09/07 03:38:41;;;;;;;;;;;;;;;16.33;100.00;100181.78;4933160;29;19933;-80
2023/09/07 03:41:07;;;;;;;;;;;;;;;16.25;100.00;100174.66;4933767;29;20089;-81
2023/09/07 03:43:33;;;;;;;;;;;;;;;16.21;100.00;100177.78;4933608;29;20443;-81
2023/09/07 03:45:58;;;;;;;;;;;;;;;16.13;100.00;100175.94;4935141;29;20018;-81
2023/09/07 03:48:24;;;;;;;;;;;;;;;16.03;100.00;100177.06;4933727;29;20076;-80
2023/09/07 03:50:49;;;;;;;;;;;;;;;16.10;100.00;100175.44;4934661;29;19945;-80
2023/09/07 03:53:14;;;;;;;;;;;;;;;16.21;100.00;100177.78;4933088;29;19986;-79
2023/09/07 03:55:41;;;;;;;;;;;;;;;16.28;100.00;100168.13;4934338;29;20387;-81
2023/09/07 03:58:08;;;;;;;;;;;;;;;16.28;100.00;100178.78;4933666;29;19923;-81
2023/09/07 04:00:34;;;;;;;;;;;;;;;16.40;100.00;100177.47;4934707;29;19978;-81
2023/09/07 04:02:59;;;;;;;;;;;;;;;16.46;100.00;100176.81;4933775;29;20025;-81
2023/09/07 04:05:25;;;;;;;;;;;;;;;16.53;100.00;100177.84;4933567;29;20302;-81
2023/09/07 04:07:50;;;;;;;;;;;;;;;16.51;100.00;100171.00;4934355;29;20053;-80
2023/09/07 04:10:16;;;;;;;;;;;;;;;16.33;100.00;100171.97;4934261;29;19923;-80
2023/09/07 04:12:41;;;;;;;;;;;;;;;16.30;100.00;100171.47;4931336;29;20328;-80
2023/09/07 04:15:08;;;;;;;;;;;;;;;16.22;100.00;100168.78;4945657;29;19961;-80
2023/09/07 04:17:39;;;;;;;;;;;;;;;16.14;100.00;100174.13;4934574;29;19962;-80
2023/09/07 04:20:09;;;;;;;;;;;;;;;16.13;100.00;100172.47;4918155;29;19927;-80
2023/09/07 04:22:35;;;;;;;;;;;;;;;16.19;100.00;100175.31;4932612;29;19933;-80
2023/09/07 04:25:01;;;;;;;;;;;;;;;16.23;100.00;100181.13;4930327;29;19923;-81
2023/09/07 04:27:26;;;;;;;;;;;;;;;16.20;100.00;100174.28;4934132;29;19970;-81
2023/09/07 04:29:51;;;;;;;;;;;;;;;16.30;100.00;100179.47;4934190;29;19970;-81
2023/09/07 04:32:17;;;;;;;;;;;;;;;16.30;100.00;100180.31;4933249;29;19923;-81
2023/09/07 04:34:42;;;;;;;;;;;;;;;16.17;100.00;100181.78;4934476;29;19985;-80
2023/09/07 04:37:08;;;;;;;;;;;;;;;16.02;100.00;100176.25;4933603;29;20010;-81
2023/09/07 04:39:34;;;;;;;;;;;;;;;16.09;100.00;100184.41;4933595;29;20013;-80
2023/09/07 04:41:59;;;;;;;;;;;;;;;16.10;100.00;100180.75;4934624;29;20030;-81
2023/09/07 04:44:26;;;;;;;;;;;;;;;16.12;100.00;100186.75;4934187;29;19982;-81
2023/09/07 04:46:52;;;;;;;;;;;;;;;15.98;100.00;100189.03;4933419;29;19923;-82
2023/09/07 04:49:18;;;;;;;;;;;;;;;15.83;100.00;100190.66;4932483;29;19923;-78
2023/09/07 04:51:43;;;;;;;;;;;;;;;15.86;100.00;100190.34;4931406;29;20439;-82
2023/09/07 04:54:09;;;;;;;;;;;;;;;15.87;100.00;100189.34;4932077;29;19945;-86
2023/09/07 04:56:34;;;;;;;;;;;;;;;15.77;100.00;100201.97;4932269;29;20383;-86
2023/09/07 04:58:59;;;;;;;;;;;;;;;15.71;100.00;100191.94;4932442;29;20017;-86
2023/09/07 05:01:26;;;;;;;;;;;;;;;15.82;100.00;100198.81;4932553;29;20277;-86
2023/09/07 05:03:54;;;;;;;;;;;;;;;15.92;100.00;100200.34;4934934;29;19966;-86
2023/09/07 05:06:19;;;;;;;;;;;;;;;15.92;100.00;100204.81;4944609;29;20005;-87
2023/09/07 05:08:44;;;;;;;;;;;;;;;15.93;100.00;100206.50;4945164;29;19934;-85
2023/09/07 05:11:10;;;;;;;;;;;;;;;15.89;100.00;100205.16;4944305;29;19923;-86
2023/09/07 05:13:36;;;;;;;;;;;;;;;15.94;100.00;100205.50;4945770;29;19922;-85
2023/09/07 05:16:02;;;;;;;;;;;;;;;15.96;100.00;100208.84;4943352;29;19923;-84
2023/09/07 05:18:28;;;;;;;;;;;;;;;16.02;100.00;100205.53;4928091;29;19923;-85
2023/09/07 05:20:54;;;;;;;;;;;;;;;16.04;100.00;100205.34;4942932;29;20017;-84
2023/09/07 05:23:20;;;;;;;;;;;;;;;16.08;100.00;100220.03;4943472;29;20013;-85
2023/09/07 05:25:47;;;;;;;;;;;;;;;16.08;100.00;100210.19;4943531;29;19926;-80
2023/09/07 05:28:14;;;;;;;;;;;;;;;16.14;100.00;100206.06;4942927;29;20065;-83
2023/09/07 05:30:40;;;;;;;;;;;;;;;16.15;100.00;100211.22;4943152;29;19965;-81
2023/09/07 05:33:06;;;;;;;;;;;;;;;16.20;100.00;100229.38;4932626;29;20372;-81
2023/09/07 05:35:32;;;;;;;;;;;;;;;16.24;100.00;100210.25;4931587;29;19937;-81
2023/09/07 05:37:58;;;;;;;;;;;;;;;16.28;100.00;100221.41;4936171;29;19923;-82
2023/09/07 05:40:24;;;;;;;;;;;;;;;16.21;100.00;100225.72;4940969;29;19918;-83
2023/09/07 05:42:49;;;;;;;;;;;;;;;16.15;100.00;100221.03;4939565;29;20396;-84
2023/09/07 05:45:15;;;;;;;;;;;;;;;16.24;100.00;100215.59;4939022;29;19923;-86
2023/09/07 05:47:46;;;;;;;;;;;;;;;16.19;100.00;100220.56;4924105;29;19925;-83
2023/09/07 05:50:13;;;;;;;;;;;;;;;16.26;100.00;100223.38;4931427;29;19965;-82
2023/09/07 05:52:39;;;;;;;;;;;;;;;16.26;100.00;100234.88;4938327;29;19934;-82
2023/09/07 05:55:05;;;;;;;;;;;;;;;16.35;100.00;100227.75;4937571;29;19931;-85
2023/09/07 05:57:41;;;;;;;;;;;;;;;16.34;100.00;100231.41;4943058;29;19985;-83
2023/09/07 06:00:11;;;;;;;;;;;;;;;16.26;100.00;100236.69;4943471;29;19962;-81
2023/09/07 06:02:58;;;;;;;;;;;;;;;16.25;100.00;100225.25;4944094;29;19939;-80
2023/09/07 06:05:24;;;;;;;;;;;;;;;16.34;100.00;100220.75;4942333;29;19923;-80
2023/09/07 06:07:50;;;;;;;;;;;;;;;16.43;100.00;100219.78;4942182;29;19927;-80
2023/09/07 06:10:19;;;;;;;;;;;;;;;16.56;100.00;100224.59;4943514;29;19998;-81
2023/09/07 06:12:46;;;;;;;;;;;;;;;16.51;100.00;100222.44;4945162;29;19990;-79
2023/09/07 06:15:13;;;;;;;;;;;;;;;16.55;100.00;100228.28;4943447;29;19977;-80
2023/09/07 06:17:40;;;;;;;;;;;;;;;16.69;100.00;100225.81;4945763;29;19934;-80
2023/09/07 06:20:09;;;;;;;;;;;;;;;16.65;100.00;100227.16;4943514;29;19927;-78
2023/09/07 06:22:49;;;;;;;;;;;;;;;16.69;100.00;100225.81;4934885;29;19962;-76
2023/09/07 06:25:15;;;;;;;;;;;;;;;16.77;100.00;100228.50;4936596;29;19979;-77
2023/09/07 06:27:41;;;;;;;;;;;;;;;16.89;100.00;100236.16;4938309;29;20423;-76
2023/09/07 06:30:08;;;;;;;;;;;;;;;16.96;100.00;100237.16;4937076;29;20399;-76
2023/09/07 06:32:35;;;;;;;;;;;;;;;16.97;100.00;100233.47;4939511;29;19926;-76
2023/09/07 06:35:02;;;;;;;;;;;;;;;17.05;100.00;100241.47;4936736;29;19934;-77
2023/09/07 06:37:28;;;;;;;;;;;;;;;17.17;100.00;100235.66;4938584;29;19923;-77
2023/09/07 06:39:57;;;;;;;;;;;;;;;17.27;100.00;100231.94;4939749;29;20010;-76
2023/09/07 06:42:23;;;;;;;;;;;;;;;17.36;100.00;100234.44;4938993;29;19923;-77
2023/09/07 06:45:05;;;;;;;;;;;;;;;17.40;100.00;100232.28;4950774;28;19962;-76
2023/09/07 06:47:31;;;;;;;;;;;;;;;17.57;100.00;100232.06;4938049;29;19923;-77
2023/09/07 06:49:57;;;;;;;;;;;;;;;17.62;100.00;100234.25;4939056;29;19923;-76
2023/09/07 06:52:23;;;;;;;;;;;;;;;17.73;100.00;100236.53;4935399;29;20009;-76
2023/09/07 06:54:53;;;;;;;;;;;;;;;17.74;100.00;100237.38;4948194;29;19930;-77
2023/09/07 06:57:33;;;;;;;;;;;;;;;17.78;100.00;100238.72;4939068;29;19922;-78
2023/09/07 07:00:07;;;;;;;;;;;;;;;17.78;100.00;100238.72;4923514;29;19962;-79
2023/09/07 07:02:34;;;;;;;;;;;;;;;17.84;100.00;100243.34;4950089;28;19927;-81
2023/09/07 07:05:09;;;;;;;;;;;;;;;17.97;100.00;100238.28;4942190;29;20407;-82
2023/09/07 07:07:40;;;;;;;;;;;;;;;18.10;100.00;100243.91;4944592;29;19923;-77
2023/09/07 07:10:09;;;;;;;;;;;;;;;18.20;100.00;100233.81;4923086;29;19923;-77
2023/09/07 07:12:37;;;;;;;;;;;;;;;18.24;100.00;100245.84;4942884;29;19933;-80
2023/09/07 07:15:05;;;;;;;;;;;;;;;18.29;100.00;100243.47;4947600;29;19923;-78
2023/09/07 07:17:31;;;;;;;;;;;;;;;18.34;100.00;100254.44;4941181;29;20387;-76
2023/09/07 07:20:00;;;;;;;;;;;;;;;18.34;100.00;100246.44;4933428;29;19937;-78
2023/09/07 07:22:28;;;;;;;;;;;;;;;18.42;100.00;100250.91;4938328;29;19964;-76
2023/09/07 07:24:56;;;;;;;;;;;;;;;18.51;100.00;100243.66;4933072;29;20372;-73
2023/09/07 07:27:24;;;;;;;;;;;;;;;18.62;100.00;100243.28;4934517;29;19969;-79
2023/09/07 07:29:51;;;;;;;;;;;;;;;18.69;100.00;100241.56;4941394;29;19929;-81
2023/09/07 07:32:17;;;;;;;;;;;;;;;18.79;100.00;100250.19;4942108;29;19961;-84
2023/09/07 07:34:43;;;;;;;;;;;;;;;18.90;100.00;100247.09;4941092;29;20376;-81
2023/09/07 07:37:09;;;;;;;;;;;;;;;18.99;100.00;100242.50;4940949;29;20299;-79
2023/09/07 07:39:34;;;;;;;;;;;;;;;18.96;100.00;100240.19;4939883;29;19926;-78
2023/09/07 07:42:00;;;;;;;;;;;;;;;19.03;100.00;100241.94;4935279;29;19947;-78
2023/09/07 07:44:25;;;;;;;;;;;;;;;19.17;100.00;100249.19;4935687;29;19977;-77
2023/09/07 07:46:51;;;;;;;;;;;;;;;19.26;100.00;100241.94;4935882;29;19929;-79
2023/09/07 07:49:16;;;;;;;;;;;;;;;19.36;100.00;100241.66;4934757;29;19933;-79
2023/09/07 07:51:42;;;;;;;;;;;;;;;19.42;100.00;100240.94;4933454;29;20282;-78
2023/09/07 07:54:08;;;;;;;;;;;;;;;19.44;100.00;100239.72;4935808;29;19978;-75
2023/09/07 07:56:34;;;;;;;;;;;;;;;19.51;100.00;100250.56;4933180;29;20344;-74
2023/09/07 07:59:01;;;;;;;;;;;;;;;19.59;100.00;100240.59;4934275;29;19929;-74
2023/09/07 08:01:27;;;;;;;;;;;;;;;19.69;100.00;100240.31;4933284;29;20247;-75
2023/09/07 08:03:53;;;;;;;;;;;;;;;19.70;100.00;100239.31;4933319;29;19929;-76
2023/09/07 08:06:20;;;;;;;;;;;;;;;19.77;100.00;100234.88;4933318;29;20310;-76
2023/09/07 08:08:46;;;;;;;;;;;;;;;19.88;100.00;100237.09;4934462;29;19934;-75
2023/09/07 08:11:11;;;;;;;;;;;;;;;20.01;100.00;100242.63;4933375;29;19983;-76
2023/09/07 08:13:39;;;;;;;;;;;;;;;20.13;100.00;100234.94;4933526;29;19923;-76
2023/09/07 08:16:05;;;;;;;;;;;;;;;20.23;100.00;100223.91;4930529;29;19931;-78
2023/09/07 08:18:32;;;;;;;;;;;;;;;20.34;100.00;100231.47;4930115;29;19929;-86
2023/09/07 08:20:57;;;;;;;;;;;;;;;20.41;100.00;100237.75;4933380;29;19930;-83
2023/09/07 08:23:23;;;;;;;;;;;;;;;20.51;100.00;100227.53;4934925;29;19923;-81
2023/09/07 08:25:52;;;;;;;;;;;;;;;20.59;100.00;100230.09;4933861;29;19962;-77
2023/09/07 08:28:20;;;;;;;;;;;;;;;20.67;100.00;100231.84;4933546;29;19923;-77
2023/09/07 08:30:46;;;;;;;;;;;;;;;20.76;100.00;100231.50;4934101;29;19930;-83
2023/09/07 08:33:11;;;;;;;;;;;;;;;20.85;100.00;100224.97;4934290;29;20531;-78
2023/09/07 08:35:43;;;;;;;;;;;;;;;20.96;100.00;100231.69;4934251;29;19974;-86
2023/09/07 08:38:09;;;;;;;;;;;;;;;21.06;100.00;100232.19;4937223;29;19942;-84
2023/09/07 08:40:35;;;;;;;;;;;;;;;21.14;100.00;100223.19;4936964;29;19927;-84
2023/09/07 08:43:05;;;;;;;;;;;;;;;21.21;100.00;100218.69;4932958;29;20330;-86
2023/09/07 08:45:36;;;;;;;;;;;;;;;21.29;100.00;100223.09;4933771;29;20319;-87
2023/09/07 08:48:02;;;;;;;;;;;;;;;21.39;100.00;100224.41;4934825;29;19974;-86
2023/09/07 08:50:27;;;;;;;;;;;;;;;21.48;100.00;100225.09;4933688;29;19922;-87
2023/09/07 08:52:53;;;;;;;;;;;;;;;21.56;100.00;100228.44;4934442;29;19923;-86
2023/09/07 08:55:19;;;;;;;;;;;;;;;21.63;100.00;100223.94;4934401;29;20064;-86
2023/09/07 08:57:45;;;;;;;;;;;;;;;21.69;100.00;100225.00;4932944;29;19985;-86
2023/09/07 09:00:16;;;;;;;;;;;;;;;21.77;100.00;100226.69;4934225;29;19929;-86
2023/09/07 09:02:50;;;;;;;;;;;;;;;21.84;100.00;100214.13;4934318;29;19937;-86
2023/09/07 09:05:19;;;;;;;;;;;;;;;21.92;100.00;100217.47;4933837;29;19945;-86
2023/09/07 09:07:44;;;;;;;;;;;;;;;21.96;100.00;100218.78;4932407;29;20327;-86
2023/09/07 09:10:10;;;;;;;;;;;;;;;22.04;100.00;100212.38;4934049;29;19923;-86
2023/09/07 09:12:35;;;;;;;;;;;;;;;22.09;100.00;100209.91;4936139;29;19922;-86
2023/09/07 09:15:04;;;;;;;;;;;;;;;22.16;100.00;100216.16;4933841;29;19989;-86
2023/09/07 09:17:29;;;;;;;;;;;;;;;22.22;100.00;100204.59;4933810;29;19938;-86
2023/09/07 09:19:55;;;;;;;;;;;;;;;22.31;100.00;100210.63;4928102;29;19927;-85
2023/09/07 09:22:20;;;;;;;;;;;;;;;22.35;100.00;100207.31;4934126;29;19927;-86
2023/09/07 09:24:48;;;;;;;;;;;;;;;22.42;100.00;100194.72;4937426;29;19979;-86
2023/09/07 09:27:13;;;;;;;;;;;;;;;22.50;100.00;100195.56;4934696;29;20448;-85
2023/09/07 09:29:39;;;;;;;;;;;;;;;22.58;100.00;100196.19;4933415;29;20484;-79
2023/09/07 09:32:06;;;;;;;;;;;;;;;22.66;100.00;100192.47;4935244;29;20309;-79
2023/09/07 09:34:37;;;;;;;;;;;;;;;22.73;100.00;100190.66;4934690;29;19923;-79
2023/09/07 09:37:06;;;;;;;;;;;;;;;22.81;100.00;100190.44;4598580;29;10000430;-86
2023/09/07 09:39:31;;;;;;;;;;;;;;;22.87;100.00;100195.00;4936323;29;20407;-86
2023/09/07 09:41:57;;;;;;;;;;;;;;;22.94;100.00;100185.06;4939422;29;19927;-88
2023/09/07 09:44:26;;;;;;;;;;;;;;;23.01;100.00;100188.59;4937314;29;19927;-87
2023/09/07 09:46:52;;;;;;;;;;;;;;;23.08;100.00;100192.09;4926624;29;19927;-86
2023/09/07 09:49:18;;;;;;;;;;;;;;;23.14;100.00;100191.28;4930744;29;19923;-88
2023/09/07 09:51:44;;;;;;;;;;;;;;;23.19;100.00;100183.38;4935780;29;20360;-87
2023/09/07 09:54:11;;;;;;;;;;;;;;;23.26;100.00;100189.59;4937376;29;20388;-85
2023/09/07 09:56:36;;;;;;;;;;;;;;;23.34;100.00;100176.94;4937265;29;19923;-85
2023/09/07 09:59:02;;;;;;;;;;;;;;;23.39;100.00;100177.13;4934830;29;19923;-86
2023/09/07 10:01:29;;;;;;;;;;;;;;;23.43;100.00;100170.28;4934088;29;20430;-85
2023/09/07 10:03:54;;;;;;;;;;;;;;;23.49;100.00;100167.63;4930931;29;19922;-85
2023/09/07 10:06:28;;;;;;;;;;;;;;;23.55;100.00;100166.78;4930971;29;19929;-86
2023/09/07 10:09:03;;;;;;;;;;;;;;;23.60;100.00;100163.44;4929136;29;19922;-85
2023/09/07 10:11:39;;;;;;;;;;;;;;;23.66;100.00;100162.59;4927860;29;19922;-85
2023/09/07 10:14:08;;;;;;;;;;;;;;;23.73;100.00;100168.78;4933706;29;19970;-87
2023/09/07 10:16:43;;;;;;;;;;;;;;;23.83;100.00;100168.31;4930460;29;19975;-87
2023/09/07 10:19:15;;;;;;;;;;;;;;;23.87;100.00;100164.97;4931142;29;19923;-87
2023/09/07 10:21:40;;;;;;;;;;;;;;;24.02;100.00;100162.84;4930589;29;19926;-86
2023/09/07 10:24:06;;;;;;;;;;;;;;;24.04;100.00;100166.13;4929832;29;19926;-78
2023/09/07 10:26:31;;;;;;;;;;;;;;;24.07;100.00;100154.09;4933833;29;19923;-86
2023/09/07 10:29:00;;;;;;;;;;;;;;;24.11;100.00;100146.41;4928574;29;20351;-86
2023/09/07 10:31:26;;;;;;;;;;;;;;;24.34;100.00;100146.69;4930722;29;20443;-85
2023/09/07 10:33:51;;;;;;;;;;;;;;;24.34;100.00;100144.00;4251705;29;10000703;-87
2023/09/07 10:36:27;;;;;;;;;;;;;;;24.37;100.00;100140.88;4933510;29;19923;-89
2023/09/07 10:38:54;;;;;;;;;;;;;;;24.42;100.00;100139.19;4936878;29;19985;-83
2023/09/07 10:41:19;;;;;;;;;;;;;;;24.48;100.00;100138.31;4951761;29;19962;-81
2023/09/07 10:43:49;;;;;;;;;;;;;;;24.51;100.00;100128.94;4939616;29;19994;-82
2023/09/07 10:46:14;;;;;;;;;;;;;;;24.53;100.00;100132.25;4932977;29;20673;-84
2023/09/07 10:48:40;;;;;;;;;;;;;;;24.60;100.00;100127.63;4932827;29;19930;-82
2023/09/07 10:51:05;;;;;;;;;;;;;;;24.63;100.00;100137.97;4932958;29;19931;-82
2023/09/07 10:53:31;;;;;;;;;;;;;;;24.71;100.00;100128.78;4933069;29;19926;-82
2023/09/07 10:55:59;;;;;;;;;;;;;;;24.71;100.00;100135.00;4931795;29;19974;-82
2023/09/07 10:58:28;;;;;;;;;;;;;;;24.72;100.00;100125.88;4926586;29;19926;-82
2023/09/07 11:00:53;;;;;;;;;;;;;;;24.75;100.00;100119.19;4932630;29;19965;-86
2023/09/07 11:03:19;;;;;;;;;;;;;;;24.75;100.00;100121.88;4933115;29;20356;-85
2023/09/07 11:05:45;;;;;;;;;;;;;;;24.77;100.00;100117.94;4932648;29;20030;-80
2023/09/07 11:08:10;;;;;;;;;;;;;;;24.84;100.00;100113.31;4934006;29;19926;-82
2023/09/07 11:10:36;;;;;;;;;;;;;;;24.89;100.00;100112.66;4931221;29;20388;-83
2023/09/07 11:13:03;;;;;;;;;;;;;;;24.97;100.00;100116.97;4932265;29;19923;-82
2023/09/07 11:15:29;;;;;;;;;;;;;;;25.01;100.00;100107.38;4930832;29;19926;-83
2023/09/07 11:17:54;;;;;;;;;;;;;;;25.06;100.00;100110.22;4925248;29;20323;-82
2023/09/07 11:20:21;;;;;;;;;;;;;;;25.11;100.00;100113.06;4924446;29;19930;-82
2023/09/07 11:22:46;;;;;;;;;;;;;;;25.12;100.00;100106.63;4927807;29;19937;-86
2023/09/07 11:25:12;;;;;;;;;;;;;;;25.18;100.00;100103.03;4922412;29;19926;-83
2023/09/07 11:27:39;;;;;;;;;;;;;;;25.24;100.00;100102.97;4923041;29;19930;-82
2023/09/07 11:30:07;;;;;;;;;;;;;;;25.33;97.99;100089.97;4923959;29;19924;-83
2023/09/07 11:32:36;;;;;;;;;;;;;;;25.38;100.00;100092.00;4920610;29;19923;-83
2023/09/07 11:35:02;;;;;;;;;;;;;;;25.51;92.14;100102.63;4928053;29;19929;-81
2023/09/07 11:37:27;;;;;;;;;;;;;;;25.56;88.71;100097.41;4911226;29;19926;-82
2023/09/07 11:39:53;;;;;;;;;;;;;;;25.57;99.33;100099.88;4919718;29;20401;-81
2023/09/07 11:42:18;;;;;;;;;;;;;;;25.67;89.48;100096.66;4922056;29;19929;-82
2023/09/07 11:44:43;;;;;;;;;;;;;;;25.72;92.90;100095.97;4920955;29;19939;-80
2023/09/07 11:47:09;;;;;;;;;;;;;;;25.78;90.38;100097.75;4922906;29;20022;-80
2023/09/07 11:49:35;;;;;;;;;;;;;;;25.86;91.55;100092.03;4926380;29;19933;-83
2023/09/07 11:52:00;;;;;;;;;;;;;;;25.93;88.12;100084.66;4925136;29;19927;-80
2023/09/07 11:54:27;;;;;;;;;;;;;;;26.02;87.46;100088.69;4908572;29;20296;-80
2023/09/07 11:56:52;;;;;;;;;;;;;;;26.16;87.76;100084.72;4907239;29;19923;-82
2023/09/07 11:59:17;;;;;;;;;;;;;;;26.26;84.43;100079.63;4927914;29;19924;-84
2023/09/07 12:01:43;;;;;;;;;;;;;;;26.42;82.49;100078.94;4926810;29;19938;-83
2023/09/07 12:04:09;;;;;;;;;;;;;;;26.61;82.88;100068.00;4926772;29;20446;-83
2023/09/07 12:06:34;;;;;;;;;;;;;;;26.79;81.95;100067.91;4927412;29;20009;-85
2023/09/07 12:09:01;;;;;;;;;;;;;;;26.99;81.91;100072.97;4925801;29;20013;-83
2023/09/07 12:11:27;;;;;;;;;;;;;;;27.19;79.66;100076.94;4923503;29;19922;-83
2023/09/07 12:13:52;;;;;;;;;;;;;;;27.32;75.64;100067.75;4927326;29;19930;-83
2023/09/07 12:16:17;;;;;;;;;;;;;;;27.44;74.06;100065.00;4923704;29;19927;-83
2023/09/07 12:18:42;;;;;;;;;;;;;;;27.53;74.84;100063.56;4935167;29;20285;-81
2023/09/07 12:21:08;;;;;;;;;;;;;;;27.62;75.82;100051.28;4935896;29;19947;-82
2023/09/07 12:23:33;;;;;;;;;;;;;;;27.78;75.45;100055.94;4935450;29;20395;-85
2023/09/07 12:25:59;;;;;;;;;;;;;;;27.79;72.49;100057.59;4935393;29;19930;-80